MAC YBBN-YHBA
Flight info
| Callsign | MAC |
|---|---|
| Flight time | 1h 0m |
| Altitude | 8000 |
| Route | BIXAD Q67 GUDSO Q24 TERUV DCT HAAVI |
| Aircraft | C208/L-SDFGR/C |
Departure
| Time | 2026-05-05 01:54 |
|---|---|
| Airport | Brisbane International Airport (YBBN) |
Arrival
| Time | 2026-05-05 02:54 |
|---|---|
| Airport | Hervey Bay Airport (YHBA) |
| Time | Latitude | Longitude | Altitude | Speed | Heading |
|---|---|---|---|---|---|
| 2026-05-05 01:27 | -27.37416 | 153.12624 | 18 ft | 0 kts | 297° |
| 2026-05-05 01:37 | -27.37415 | 153.12620 | 18 ft | 2 kts | 296° |
| 2026-05-05 01:38 | -27.37400 | 153.12578 | 18 ft | 10 kts | 328° |
| 2026-05-05 01:38 | -27.37357 | 153.12601 | 18 ft | 10 kts | 27° |
| 2026-05-05 01:38 | -27.37315 | 153.12648 | 18 ft | 12 kts | 100° |
| 2026-05-05 01:38 | -27.37344 | 153.12718 | 18 ft | 13 kts | 121° |
| 2026-05-05 01:39 | -27.37377 | 153.12785 | 18 ft | 14 kts | 116° |
| 2026-05-05 01:39 | -27.37413 | 153.12866 | 18 ft | 15 kts | 117° |
| 2026-05-05 01:39 | -27.37454 | 153.12955 | 18 ft | 16 kts | 117° |
| 2026-05-05 01:39 | -27.37503 | 153.13031 | 18 ft | 13 kts | 164° |
| 2026-05-05 01:40 | -27.37565 | 153.13008 | 18 ft | 13 kts | 205° |
| 2026-05-05 01:40 | -27.37623 | 153.12976 | 18 ft | 14 kts | 206° |
| 2026-05-05 01:40 | -27.37687 | 153.12941 | 18 ft | 15 kts | 210° |
| 2026-05-05 01:40 | -27.37758 | 153.12900 | 18 ft | 16 kts | 207° |
| 2026-05-05 01:41 | -27.37835 | 153.12857 | 18 ft | 16 kts | 204° |
| 2026-05-05 01:41 | -27.37911 | 153.12811 | 18 ft | 16 kts | 210° |
| 2026-05-05 01:41 | -27.37934 | 153.12735 | 18 ft | 15 kts | 295° |
| 2026-05-05 01:41 | -27.37895 | 153.12651 | 18 ft | 16 kts | 303° |
| 2026-05-05 01:42 | -27.37849 | 153.12645 | 18 ft | 1 kts | 276° |
| 2026-05-05 01:42 | -27.37847 | 153.12605 | 18 ft | 14 kts | 276° |
| 2026-05-05 01:42 | -27.37829 | 153.12520 | 18 ft | 14 kts | 286° |
| 2026-05-05 01:42 | -27.37803 | 153.12442 | 18 ft | 13 kts | 297° |
| 2026-05-05 01:43 | -27.37774 | 153.12381 | 18 ft | 12 kts | 297° |
| 2026-05-05 01:43 | -27.37739 | 153.12302 | 18 ft | 11 kts | 299° |
| 2026-05-05 01:43 | -27.37704 | 153.12227 | 18 ft | 12 kts | 298° |
| 2026-05-05 01:43 | -27.37665 | 153.12141 | 18 ft | 15 kts | 296° |
| 2026-05-05 01:44 | -27.37628 | 153.12059 | 18 ft | 17 kts | 299° |
| 2026-05-05 01:44 | -27.37589 | 153.11971 | 18 ft | 18 kts | 295° |
| 2026-05-05 01:44 | -27.37547 | 153.11879 | 18 ft | 19 kts | 297° |
| 2026-05-05 01:44 | -27.37505 | 153.11787 | 18 ft | 20 kts | 295° |
| 2026-05-05 01:45 | -27.37407 | 153.11578 | 18 ft | 20 kts | 313° |
| 2026-05-05 01:45 | -27.37331 | 153.11560 | 18 ft | 20 kts | 23° |
| 2026-05-05 01:45 | -27.37186 | 153.11639 | 18 ft | 20 kts | 14° |
| 2026-05-05 01:45 | -27.37076 | 153.11702 | 18 ft | 20 kts | 32° |
| 2026-05-05 01:46 | -27.36975 | 153.11768 | 18 ft | 21 kts | 25° |
| 2026-05-05 01:46 | -27.36746 | 153.11900 | 18 ft | 21 kts | 19° |
| 2026-05-05 01:46 | -27.36640 | 153.11897 | 18 ft | 19 kts | 297° |
| 2026-05-05 01:47 | -27.36612 | 153.11827 | 18 ft | 17 kts | 299° |
| 2026-05-05 01:47 | -27.36595 | 153.11792 | 18 ft | 2 kts | 297° |
| 2026-05-05 01:47 | -27.36593 | 153.11787 | 18 ft | 0 kts | 297° |
| 2026-05-05 01:53 | -27.36584 | 153.11766 | 18 ft | 9 kts | 294° |
| 2026-05-05 01:53 | -27.36560 | 153.11697 | 18 ft | 7 kts | 338° |
| 2026-05-05 01:54 | -27.36446 | 153.11740 | 18 ft | 48 kts | 23° |
| 2026-05-05 01:54 | -27.36009 | 153.11986 | 171 ft | 90 kts | 24° |
| 2026-05-05 01:54 | -27.35582 | 153.12122 | 629 ft | 80 kts | 8° |
| 2026-05-05 01:54 | -27.35105 | 153.12274 | 881 ft | 95 kts | 14° |
| 2026-05-05 01:55 | -27.34312 | 153.12495 | 1292 ft | 108 kts | 12° |
| 2026-05-05 01:55 | -27.33544 | 153.12676 | 1652 ft | 128 kts | 10° |
| 2026-05-05 01:55 | -27.32681 | 153.12860 | 2020 ft | 136 kts | 9° |
| 2026-05-05 01:55 | -27.31673 | 153.13062 | 2058 ft | 163 kts | 9° |
| 2026-05-05 01:56 | -27.30490 | 153.13292 | 2021 ft | 177 kts | 9° |
| 2026-05-05 01:56 | -27.29328 | 153.13525 | 2394 ft | 163 kts | 9° |
| 2026-05-05 01:56 | -27.28260 | 153.13737 | 2798 ft | 155 kts | 9° |
| 2026-05-05 01:56 | -27.27217 | 153.13940 | 3168 ft | 152 kts | 9° |
| 2026-05-05 01:57 | -27.26190 | 153.14137 | 3539 ft | 150 kts | 9° |
| 2026-05-05 01:57 | -27.25330 | 153.14300 | 3854 ft | 148 kts | 9° |
| 2026-05-05 01:57 | -27.24277 | 153.14494 | 4243 ft | 147 kts | 8° |
| 2026-05-05 01:57 | -27.23216 | 153.14685 | 4639 ft | 146 kts | 8° |
| 2026-05-05 01:58 | -27.22221 | 153.14857 | 5014 ft | 144 kts | 8° |
| 2026-05-05 01:58 | -27.21234 | 153.15024 | 5388 ft | 143 kts | 8° |
| 2026-05-05 01:58 | -27.20256 | 153.15186 | 5761 ft | 142 kts | 7° |
| 2026-05-05 01:58 | -27.19271 | 153.15343 | 6139 ft | 141 kts | 7° |
| 2026-05-05 01:59 | -27.18300 | 153.15491 | 6515 ft | 140 kts | 7° |
| 2026-05-05 01:59 | -27.17347 | 153.15631 | 6886 ft | 139 kts | 7° |
| 2026-05-05 01:59 | -27.16391 | 153.15767 | 7261 ft | 138 kts | 6° |
| 2026-05-05 01:59 | -27.15457 | 153.15892 | 7631 ft | 137 kts | 6° |
| 2026-05-05 02:00 | -27.14521 | 153.16013 | 8004 ft | 135 kts | 6° |
| 2026-05-05 02:00 | -27.13572 | 153.16126 | 8311 ft | 140 kts | 5° |
| 2026-05-05 02:00 | -27.12525 | 153.16248 | 8302 ft | 161 kts | 5° |
| 2026-05-05 02:00 | -27.11389 | 153.16383 | 8412 ft | 165 kts | 6° |
| 2026-05-05 02:01 | -27.10197 | 153.16528 | 8301 ft | 179 kts | 6° |
| 2026-05-05 02:01 | -27.08931 | 153.16690 | 8181 ft | 187 kts | 6° |
| 2026-05-05 02:01 | -27.07623 | 153.16870 | 8064 ft | 190 kts | 7° |
| 2026-05-05 02:01 | -27.06309 | 153.17064 | 8041 ft | 188 kts | 7° |
| 2026-05-05 02:02 | -27.05113 | 153.17248 | 8046 ft | 186 kts | 8° |
| 2026-05-05 02:02 | -27.03843 | 153.17453 | 8046 ft | 185 kts | 8° |
| 2026-05-05 02:02 | -27.02566 | 153.17665 | 8047 ft | 184 kts | 8° |
| 2026-05-05 02:02 | -27.01310 | 153.17882 | 8047 ft | 184 kts | 8° |
| 2026-05-05 02:03 | -27.00052 | 153.18108 | 8047 ft | 184 kts | 9° |
| 2026-05-05 02:03 | -26.98783 | 153.18341 | 8047 ft | 184 kts | 9° |
| 2026-05-05 02:03 | -26.97525 | 153.18582 | 8047 ft | 184 kts | 9° |
| 2026-05-05 02:03 | -26.96270 | 153.18829 | 8047 ft | 184 kts | 10° |
| 2026-05-05 02:04 | -26.95015 | 153.19089 | 8047 ft | 184 kts | 10° |
| 2026-05-05 02:04 | -26.93769 | 153.19353 | 8047 ft | 184 kts | 11° |
| 2026-05-05 02:04 | -26.92505 | 153.19627 | 8047 ft | 184 kts | 11° |
| 2026-05-05 02:04 | -26.91245 | 153.19907 | 8047 ft | 184 kts | 11° |
| 2026-05-05 02:05 | -26.90001 | 153.20187 | 8025 ft | 185 kts | 11° |
| 2026-05-05 02:05 | -26.88737 | 153.20485 | 8001 ft | 185 kts | 12° |
| 2026-05-05 02:05 | -26.87482 | 153.20787 | 8000 ft | 184 kts | 12° |
| 2026-05-05 02:05 | -26.86242 | 153.21095 | 8005 ft | 184 kts | 12° |
| 2026-05-05 02:06 | -26.84995 | 153.21410 | 8004 ft | 184 kts | 12° |
| 2026-05-05 02:06 | -26.83746 | 153.21732 | 8004 ft | 184 kts | 13° |
| 2026-05-05 02:06 | -26.82493 | 153.22061 | 8004 ft | 184 kts | 13° |
| 2026-05-05 02:06 | -26.81254 | 153.22397 | 8004 ft | 184 kts | 13° |
| 2026-05-05 02:07 | -26.80017 | 153.22739 | 8004 ft | 184 kts | 14° |
| 2026-05-05 02:07 | -26.78770 | 153.23091 | 8004 ft | 184 kts | 14° |
| 2026-05-05 02:07 | -26.77535 | 153.23448 | 8004 ft | 184 kts | 14° |
| 2026-05-05 02:07 | -26.76306 | 153.23810 | 8004 ft | 184 kts | 14° |
| 2026-05-05 02:08 | -26.75065 | 153.24185 | 8004 ft | 184 kts | 15° |
| 2026-05-05 02:08 | -26.73836 | 153.24564 | 8004 ft | 184 kts | 15° |
| 2026-05-05 02:08 | -26.72606 | 153.24950 | 8004 ft | 184 kts | 15° |
| 2026-05-05 02:08 | -26.71372 | 153.25346 | 8004 ft | 184 kts | 16° |
| 2026-05-05 02:09 | -26.70150 | 153.25746 | 8004 ft | 184 kts | 16° |
| 2026-05-05 02:09 | -26.68926 | 153.26155 | 8004 ft | 184 kts | 17° |
| 2026-05-05 02:09 | -26.67701 | 153.26572 | 8004 ft | 184 kts | 17° |
| 2026-05-05 02:09 | -26.66479 | 153.26994 | 8004 ft | 184 kts | 17° |
| 2026-05-05 02:10 | -26.65263 | 153.27425 | 8004 ft | 184 kts | 17° |
| 2026-05-05 02:10 | -26.64040 | 153.27864 | 8004 ft | 184 kts | 18° |
| 2026-05-05 02:10 | -26.62821 | 153.28311 | 8004 ft | 184 kts | 18° |
| 2026-05-05 02:10 | -26.61623 | 153.28758 | 8004 ft | 184 kts | 18° |
| 2026-05-05 02:11 | -26.60399 | 153.29224 | 8004 ft | 184 kts | 19° |
| 2026-05-05 02:11 | -26.59200 | 153.29686 | 8004 ft | 184 kts | 19° |
| 2026-05-05 02:11 | -26.57989 | 153.30162 | 8004 ft | 184 kts | 19° |
| 2026-05-05 02:11 | -26.56782 | 153.30644 | 8004 ft | 184 kts | 19° |
| 2026-05-05 02:12 | -26.55588 | 153.31131 | 8004 ft | 184 kts | 20° |
| 2026-05-05 02:12 | -26.53195 | 153.32132 | 8004 ft | 184 kts | 20° |
| 2026-05-05 02:12 | -26.52003 | 153.32643 | 8004 ft | 184 kts | 21° |
| 2026-05-05 02:13 | -26.50814 | 153.33164 | 8004 ft | 184 kts | 21° |
| 2026-05-05 02:13 | -26.49622 | 153.33691 | 8004 ft | 184 kts | 21° |
| 2026-05-05 02:13 | -26.48438 | 153.34225 | 8004 ft | 184 kts | 22° |
| 2026-05-05 02:13 | -26.47247 | 153.34770 | 8004 ft | 184 kts | 22° |
| 2026-05-05 02:14 | -26.46072 | 153.35316 | 8004 ft | 184 kts | 22° |
| 2026-05-05 02:14 | -26.44894 | 153.35872 | 8004 ft | 184 kts | 23° |
| 2026-05-05 02:14 | -26.43724 | 153.36432 | 8004 ft | 184 kts | 23° |
| 2026-05-05 02:14 | -26.42549 | 153.37003 | 8004 ft | 184 kts | 23° |
| 2026-05-05 02:15 | -26.41381 | 153.37579 | 8004 ft | 184 kts | 24° |
| 2026-05-05 02:15 | -26.40214 | 153.38162 | 8004 ft | 184 kts | 24° |
| 2026-05-05 02:15 | -26.39043 | 153.38757 | 8004 ft | 184 kts | 24° |
| 2026-05-05 02:15 | -26.37893 | 153.39348 | 8004 ft | 184 kts | 25° |
| 2026-05-05 02:16 | -26.36731 | 153.39955 | 8004 ft | 184 kts | 25° |
| 2026-05-05 02:16 | -26.35569 | 153.40570 | 8004 ft | 184 kts | 25° |
| 2026-05-05 02:16 | -26.34429 | 153.41182 | 8004 ft | 184 kts | 26° |
| 2026-05-05 02:16 | -26.33277 | 153.41809 | 8004 ft | 184 kts | 26° |
| 2026-05-05 02:17 | -26.32124 | 153.42445 | 8004 ft | 184 kts | 26° |
| 2026-05-05 02:17 | -26.30988 | 153.43083 | 8004 ft | 184 kts | 27° |
| 2026-05-05 02:17 | -26.29847 | 153.43733 | 8004 ft | 184 kts | 27° |
| 2026-05-05 02:17 | -26.28718 | 153.44386 | 8004 ft | 184 kts | 27° |
| 2026-05-05 02:18 | -26.27584 | 153.45050 | 8004 ft | 184 kts | 27° |
| 2026-05-05 02:18 | -26.26454 | 153.45720 | 8004 ft | 184 kts | 28° |
| 2026-05-05 02:18 | -26.25325 | 153.46396 | 8004 ft | 184 kts | 28° |
| 2026-05-05 02:18 | -26.24200 | 153.47076 | 8004 ft | 184 kts | 28° |
| 2026-05-05 02:19 | -26.23095 | 153.47755 | 8004 ft | 184 kts | 29° |
| 2026-05-05 02:19 | -26.21974 | 153.48451 | 8004 ft | 184 kts | 29° |
| 2026-05-05 02:19 | -26.20865 | 153.49150 | 8004 ft | 184 kts | 30° |
| 2026-05-05 02:19 | -26.19751 | 153.49864 | 8004 ft | 184 kts | 30° |
| 2026-05-05 02:20 | -26.18670 | 153.50565 | 8004 ft | 184 kts | 30° |
| 2026-05-05 02:20 | -26.17579 | 153.51282 | 8004 ft | 184 kts | 30° |
| 2026-05-05 02:20 | -26.16477 | 153.52014 | 8004 ft | 184 kts | 31° |
| 2026-05-05 02:20 | -26.15530 | 153.52649 | 8004 ft | 184 kts | 30° |
| 2026-05-05 02:21 | -26.14224 | 153.52927 | 8011 ft | 183 kts | 344° |
| 2026-05-05 02:21 | -26.13239 | 153.52081 | 8014 ft | 183 kts | 300° |
| 2026-05-05 02:21 | -26.12755 | 153.50784 | 8006 ft | 183 kts | 294° |
| 2026-05-05 02:21 | -26.12170 | 153.49513 | 8003 ft | 184 kts | 299° |
| 2026-05-05 02:22 | -26.11499 | 153.48346 | 8003 ft | 184 kts | 305° |
| 2026-05-05 02:22 | -26.10723 | 153.47198 | 8003 ft | 184 kts | 308° |
| 2026-05-05 02:22 | -26.09912 | 153.46112 | 8003 ft | 184 kts | 310° |
| 2026-05-05 02:22 | -26.09075 | 153.45050 | 8003 ft | 184 kts | 311° |
| 2026-05-05 02:23 | -26.08205 | 153.43982 | 8003 ft | 184 kts | 312° |
| 2026-05-05 02:23 | -26.07333 | 153.42932 | 8004 ft | 184 kts | 313° |
| 2026-05-05 02:23 | -26.06458 | 153.41888 | 8004 ft | 184 kts | 313° |
| 2026-05-05 02:23 | -26.05588 | 153.40858 | 8004 ft | 184 kts | 313° |
| 2026-05-05 02:24 | -26.04711 | 153.39822 | 8004 ft | 184 kts | 313° |
| 2026-05-05 02:24 | -26.03821 | 153.38774 | 8004 ft | 184 kts | 313° |
| 2026-05-05 02:24 | -26.02945 | 153.37741 | 8004 ft | 184 kts | 313° |
| 2026-05-05 02:24 | -26.02071 | 153.36713 | 8004 ft | 184 kts | 313° |
| 2026-05-05 02:25 | -26.01189 | 153.35678 | 8004 ft | 184 kts | 313° |
| 2026-05-05 02:25 | -26.00307 | 153.34641 | 8004 ft | 184 kts | 313° |
| 2026-05-05 02:25 | -25.99421 | 153.33600 | 8004 ft | 184 kts | 313° |
| 2026-05-05 02:25 | -25.98542 | 153.32568 | 8004 ft | 184 kts | 313° |
| 2026-05-05 02:26 | -25.97627 | 153.31567 | 8003 ft | 184 kts | 317° |
| 2026-05-05 02:26 | -25.96712 | 153.30638 | 8003 ft | 184 kts | 317° |
| 2026-05-05 02:26 | -25.95747 | 153.29674 | 8004 ft | 184 kts | 318° |
| 2026-05-05 02:26 | -25.94797 | 153.28728 | 8004 ft | 184 kts | 318° |
| 2026-05-05 02:27 | -25.93837 | 153.27774 | 8004 ft | 184 kts | 318° |
| 2026-05-05 02:27 | -25.92884 | 153.26831 | 8004 ft | 184 kts | 318° |
| 2026-05-05 02:27 | -25.91923 | 153.25879 | 8004 ft | 184 kts | 318° |
| 2026-05-05 02:27 | -25.90965 | 153.24930 | 8004 ft | 184 kts | 318° |
| 2026-05-05 02:28 | -25.90007 | 153.23982 | 8004 ft | 184 kts | 318° |
| 2026-05-05 02:28 | -25.89058 | 153.23044 | 8004 ft | 184 kts | 318° |
| 2026-05-05 02:28 | -25.88100 | 153.22096 | 8004 ft | 184 kts | 318° |
| 2026-05-05 02:28 | -25.87144 | 153.21150 | 8004 ft | 184 kts | 318° |
| 2026-05-05 02:29 | -25.86176 | 153.20197 | 8004 ft | 184 kts | 318° |
| 2026-05-05 02:29 | -25.85232 | 153.19263 | 8004 ft | 184 kts | 318° |
| 2026-05-05 02:29 | -25.84275 | 153.18317 | 8004 ft | 184 kts | 318° |
| 2026-05-05 02:29 | -25.83318 | 153.17372 | 8004 ft | 184 kts | 318° |
| 2026-05-05 02:30 | -25.82359 | 153.16426 | 8004 ft | 184 kts | 318° |
| 2026-05-05 02:30 | -25.81402 | 153.15482 | 8004 ft | 184 kts | 318° |
| 2026-05-05 02:30 | -25.80436 | 153.14528 | 8004 ft | 184 kts | 318° |
| 2026-05-05 02:30 | -25.79483 | 153.13590 | 8004 ft | 184 kts | 318° |
| 2026-05-05 02:31 | -25.78527 | 153.12646 | 8004 ft | 184 kts | 318° |
| 2026-05-05 02:31 | -25.77577 | 153.11710 | 8004 ft | 184 kts | 318° |
| 2026-05-05 02:31 | -25.76616 | 153.10761 | 8004 ft | 184 kts | 318° |
| 2026-05-05 02:31 | -25.75654 | 153.09811 | 8004 ft | 184 kts | 318° |
| 2026-05-05 02:32 | -25.74697 | 153.08865 | 8004 ft | 184 kts | 318° |
| 2026-05-05 02:32 | -25.73740 | 153.07922 | 8004 ft | 184 kts | 318° |
| 2026-05-05 02:32 | -25.72795 | 153.06988 | 8004 ft | 184 kts | 318° |
| 2026-05-05 02:32 | -25.71829 | 153.06038 | 8004 ft | 184 kts | 318° |
| 2026-05-05 02:33 | -25.70880 | 153.05104 | 8004 ft | 184 kts | 318° |
| 2026-05-05 02:33 | -25.69918 | 153.04156 | 8004 ft | 184 kts | 318° |
| 2026-05-05 02:33 | -25.68986 | 153.03239 | 8004 ft | 184 kts | 318° |
| 2026-05-05 02:33 | -25.68031 | 153.02300 | 8004 ft | 184 kts | 318° |
| 2026-05-05 02:34 | -25.67082 | 153.01367 | 8004 ft | 184 kts | 318° |
| 2026-05-05 02:34 | -25.66118 | 153.00418 | 8004 ft | 184 kts | 318° |
| 2026-05-05 02:34 | -25.65159 | 152.99477 | 8004 ft | 184 kts | 318° |
| 2026-05-05 02:34 | -25.64203 | 152.98534 | 8004 ft | 184 kts | 318° |
| 2026-05-05 02:35 | -25.63241 | 152.97589 | 8004 ft | 184 kts | 318° |
| 2026-05-05 02:35 | -25.62285 | 152.96651 | 8004 ft | 184 kts | 318° |
| 2026-05-05 02:35 | -25.61333 | 152.95715 | 8004 ft | 184 kts | 318° |
| 2026-05-05 02:35 | -25.60368 | 152.94768 | 8004 ft | 184 kts | 318° |
| 2026-05-05 02:36 | -25.59408 | 152.93825 | 8004 ft | 184 kts | 318° |
| 2026-05-05 02:36 | -25.58460 | 152.92894 | 8004 ft | 184 kts | 318° |
| 2026-05-05 02:36 | -25.57501 | 152.91952 | 8004 ft | 184 kts | 318° |
| 2026-05-05 02:36 | -25.56529 | 152.90999 | 7978 ft | 185 kts | 318° |
| 2026-05-05 02:37 | -25.55584 | 152.90079 | 7822 ft | 181 kts | 318° |
| 2026-05-05 02:37 | -25.54648 | 152.89160 | 7622 ft | 180 kts | 318° |
| 2026-05-05 02:37 | -25.53712 | 152.88242 | 7423 ft | 180 kts | 318° |
| 2026-05-05 02:37 | -25.52765 | 152.87314 | 7221 ft | 180 kts | 318° |
| 2026-05-05 02:38 | -25.51834 | 152.86401 | 7023 ft | 180 kts | 318° |
| 2026-05-05 02:38 | -25.50887 | 152.85472 | 6820 ft | 180 kts | 318° |
| 2026-05-05 02:38 | -25.49943 | 152.84549 | 6619 ft | 180 kts | 318° |
| 2026-05-05 02:38 | -25.49010 | 152.83633 | 6420 ft | 180 kts | 318° |
| 2026-05-05 02:39 | -25.48066 | 152.82710 | 6218 ft | 180 kts | 318° |
| 2026-05-05 02:39 | -25.47136 | 152.81799 | 6020 ft | 180 kts | 318° |
| 2026-05-05 02:39 | -25.46197 | 152.80881 | 5819 ft | 180 kts | 318° |
| 2026-05-05 02:39 | -25.45248 | 152.79952 | 5617 ft | 180 kts | 318° |
| 2026-05-05 02:40 | -25.44319 | 152.79042 | 5409 ft | 180 kts | 318° |
| 2026-05-05 02:40 | -25.43377 | 152.78126 | 5088 ft | 179 kts | 319° |
| 2026-05-05 02:40 | -25.42450 | 152.77220 | 4729 ft | 179 kts | 319° |
| 2026-05-05 02:40 | -25.41526 | 152.76314 | 4492 ft | 173 kts | 318° |
| 2026-05-05 02:41 | -25.40645 | 152.75450 | 4320 ft | 167 kts | 318° |
| 2026-05-05 02:41 | -25.39789 | 152.74611 | 4146 ft | 165 kts | 318° |
| 2026-05-05 02:41 | -25.38920 | 152.73761 | 3967 ft | 164 kts | 318° |
| 2026-05-05 02:41 | -25.38072 | 152.72934 | 3790 ft | 160 kts | 318° |
| 2026-05-05 02:42 | -25.37246 | 152.72128 | 3612 ft | 156 kts | 318° |
| 2026-05-05 02:42 | -25.36440 | 152.71339 | 3437 ft | 155 kts | 318° |
| 2026-05-05 02:42 | -25.35690 | 152.70607 | 3273 ft | 154 kts | 318° |
| 2026-05-05 02:42 | -25.34943 | 152.69878 | 3110 ft | 153 kts | 318° |
| 2026-05-05 02:43 | -25.34297 | 152.69247 | 3023 ft | 146 kts | 318° |
| 2026-05-05 02:43 | -25.33508 | 152.68475 | 2886 ft | 122 kts | 317° |
| 2026-05-05 02:43 | -25.32884 | 152.67859 | 2720 ft | 112 kts | 317° |
| 2026-05-05 02:43 | -25.32323 | 152.67307 | 2532 ft | 103 kts | 317° |
| 2026-05-05 02:44 | -25.31805 | 152.66800 | 2413 ft | 94 kts | 317° |
| 2026-05-05 02:44 | -25.31325 | 152.66328 | 2366 ft | 97 kts | 317° |
| 2026-05-05 02:44 | -25.30790 | 152.65807 | 2331 ft | 104 kts | 317° |
| 2026-05-05 02:44 | -25.30246 | 152.65277 | 2281 ft | 104 kts | 317° |
| 2026-05-05 02:45 | -25.29637 | 152.64876 | 2210 ft | 105 kts | 347° |
| 2026-05-05 02:45 | -25.28918 | 152.64998 | 2144 ft | 105 kts | 20° |
| 2026-05-05 02:45 | -25.28413 | 152.65311 | 2099 ft | 104 kts | 33° |
| 2026-05-05 02:45 | -25.27803 | 152.65855 | 2042 ft | 104 kts | 41° |
| 2026-05-05 02:46 | -25.27265 | 152.66432 | 2022 ft | 101 kts | 44° |
| 2026-05-05 02:46 | -25.26780 | 152.66994 | 2019 ft | 100 kts | 46° |
| 2026-05-05 02:46 | -25.26314 | 152.67555 | 2018 ft | 99 kts | 46° |
| 2026-05-05 02:46 | -25.25847 | 152.68129 | 2018 ft | 99 kts | 47° |
| 2026-05-05 02:47 | -25.25392 | 152.68692 | 2017 ft | 99 kts | 47° |
| 2026-05-05 02:47 | -25.24964 | 152.69225 | 2017 ft | 99 kts | 47° |
| 2026-05-05 02:47 | -25.24505 | 152.69797 | 2016 ft | 99 kts | 45° |
| 2026-05-05 02:47 | -25.24074 | 152.70380 | 1995 ft | 100 kts | 59° |
| 2026-05-05 02:48 | -25.23984 | 152.71149 | 1963 ft | 101 kts | 92° |
| 2026-05-05 02:48 | -25.24143 | 152.71907 | 1949 ft | 100 kts | 105° |
| 2026-05-05 02:48 | -25.24395 | 152.72618 | 1941 ft | 100 kts | 110° |
| 2026-05-05 02:48 | -25.24693 | 152.73320 | 1936 ft | 99 kts | 113° |
| 2026-05-05 02:49 | -25.25007 | 152.74004 | 1923 ft | 100 kts | 114° |
| 2026-05-05 02:49 | -25.25336 | 152.74690 | 1901 ft | 100 kts | 115° |
| 2026-05-05 02:49 | -25.25668 | 152.75371 | 1896 ft | 99 kts | 115° |
| 2026-05-05 02:49 | -25.25999 | 152.76044 | 1893 ft | 99 kts | 115° |
| 2026-05-05 02:50 | -25.26324 | 152.76709 | 1890 ft | 99 kts | 115° |
| 2026-05-05 02:50 | -25.26659 | 152.77385 | 1887 ft | 99 kts | 116° |
| 2026-05-05 02:50 | -25.26994 | 152.78050 | 1882 ft | 98 kts | 116° |
| 2026-05-05 02:50 | -25.27331 | 152.78716 | 1830 ft | 101 kts | 116° |
| 2026-05-05 02:51 | -25.27682 | 152.79407 | 1713 ft | 102 kts | 116° |
| 2026-05-05 02:51 | -25.28024 | 152.80081 | 1580 ft | 99 kts | 116° |
| 2026-05-05 02:51 | -25.28363 | 152.80753 | 1434 ft | 99 kts | 116° |
| 2026-05-05 02:51 | -25.28685 | 152.81393 | 1279 ft | 96 kts | 116° |
| 2026-05-05 02:52 | -25.29004 | 152.82030 | 1126 ft | 94 kts | 116° |
| 2026-05-05 02:52 | -25.29316 | 152.82655 | 975 ft | 94 kts | 116° |
| 2026-05-05 02:52 | -25.29622 | 152.83270 | 829 ft | 93 kts | 116° |
| 2026-05-05 02:52 | -25.29922 | 152.83873 | 708 ft | 91 kts | 116° |
| 2026-05-05 02:53 | -25.30222 | 152.84476 | 604 ft | 89 kts | 115° |
| 2026-05-05 02:53 | -25.30510 | 152.85054 | 502 ft | 88 kts | 115° |
| 2026-05-05 02:53 | -25.30797 | 152.85631 | 402 ft | 88 kts | 115° |
| 2026-05-05 02:53 | -25.31091 | 152.86223 | 299 ft | 87 kts | 115° |
| 2026-05-05 02:54 | -25.31369 | 152.86783 | 202 ft | 87 kts | 115° |
| 2026-05-05 02:54 | -25.31673 | 152.87384 | 77 ft | 77 kts | 119° |
| 2026-05-05 02:54 | -25.31845 | 152.87732 | 60 ft | 31 kts | 120° |
| 2026-05-05 02:54 | -25.31921 | 152.87892 | 57 ft | 27 kts | 121° |
| 2026-05-05 02:55 | -25.32019 | 152.88083 | 53 ft | 24 kts | 120° |
| 2026-05-05 02:55 | -25.32094 | 152.88208 | 52 ft | 21 kts | 115° |
| 2026-05-05 02:55 | -25.32154 | 152.88354 | 52 ft | 18 kts | 118° |
| 2026-05-05 02:55 | -25.32208 | 152.88466 | 52 ft | 16 kts | 117° |
| 2026-05-05 02:56 | -25.32196 | 152.88536 | 52 ft | 11 kts | 25° |
| 2026-05-05 02:56 | -25.32162 | 152.88590 | 54 ft | 8 kts | 81° |
| 2026-05-05 02:56 | -25.32174 | 152.88629 | 54 ft | 6 kts | 116° |
| 2026-05-05 02:56 | -25.32184 | 152.88661 | 55 ft | 4 kts | 104° |
| 2026-05-05 02:57 | -25.32192 | 152.88666 | 54 ft | 1 kts | 168° |
| 2026-05-05 02:57 | -25.32200 | 152.88666 | 54 ft | 0 kts | 205° |